Time;durP1;ratioP1;P1;durP2;ratioP2;P2;SDS_P1;SDS_P2;PMS_P1;PMS_P2;Temp;Humidity;BMP_temperature;BMP_pressure;BME280_temperature;BME280_humidity;BME280_pressure;Samples;Min_cycle;Max_cycle;Signal;HPM_P1;HPM_P2
2021/04/15 00:01:54;;;;;;;2.03;0.85;;;7.00;68.70;;;;;;5011299;28;20030;-76
2021/04/15 00:04:20;;;;;;;3.72;0.95;;;7.00;68.80;;;;;;5011024;28;20064;-77
2021/04/15 00:06:46;;;;;;;0.60;0.60;;;7.00;68.90;;;;;;5010627;28;20088;-76
2021/04/15 00:09:19;;;;;;;0.85;0.60;;;7.00;68.80;;;;;;5009341;28;20171;-76
2021/04/15 00:11:46;;;;;;;1.75;0.60;;;7.00;68.80;;;;;;5015337;28;20052;-75
2021/04/15 00:14:14;;;;;;;0.55;0.55;;;7.00;68.80;;;;;;5014837;28;20026;-75
2021/04/15 00:16:40;;;;;;;2.28;0.77;;;7.00;68.80;;;;;;5013897;28;20382;-75
2021/04/15 00:19:08;;;;;;;0.82;0.68;;;7.10;68.70;;;;;;5014781;28;20026;-76
2021/04/15 00:21:34;;;;;;;1.02;0.60;;;7.10;68.70;;;;;;5014685;28;20496;-76
2021/04/15 00:24:00;;;;;;;0.50;0.50;;;7.10;68.80;;;;;;5014905;28;20030;-77
2021/04/15 00:26:28;;;;;;;0.50;0.50;;;7.10;68.80;;;;;;5014444;28;20184;-77
2021/04/15 00:28:54;;;;;;;0.65;0.50;;;7.10;68.90;;;;;;5013533;28;20101;-76
2021/04/15 00:31:22;;;;;;;0.40;0.40;;;7.00;69.00;;;;;;5013936;28;20059;-77
2021/04/15 00:33:48;;;;;;;2.33;0.50;;;7.00;69.40;;;;;;5014154;28;20026;-76
2021/04/15 00:36:14;;;;;;;0.90;0.55;;;6.90;69.70;;;;;;5013701;28;20052;-76
2021/04/15 00:38:40;;;;;;;0.70;0.50;;;6.80;69.80;;;;;;5014267;28;20153;-76
2021/04/15 00:41:08;;;;;;;0.82;0.60;;;6.80;70.00;;;;;;5013147;28;20038;-76
2021/04/15 00:43:38;;;;;;;1.45;0.57;;;6.80;70.20;;;;;;5013864;28;20060;-76
2021/04/15 00:46:15;;;;;;;0.43;0.43;;;6.80;70.70;;;;;;5013608;28;20465;-77
2021/04/15 00:48:44;;;;;;;0.47;0.43;;;6.70;70.80;;;;;;5013088;28;20075;-76
2021/04/15 00:51:19;;;;;;;0.30;0.30;;;6.80;70.90;;;;;;5013250;28;20105;-76
2021/04/15 00:53:51;;;;;;;0.50;0.50;;;6.70;71.00;;;;;;5013037;28;20462;-76
2021/04/15 00:56:18;;;;;;;0.50;0.50;;;6.70;71.10;;;;;;5012187;28;20024;-75
2021/04/15 00:58:44;;;;;;;0.77;0.50;;;6.70;71.20;;;;;;5014017;28;20105;-75
2021/04/15 01:01:10;;;;;;;0.60;0.60;;;6.70;71.60;;;;;;5011784;28;20030;-76
2021/04/15 01:03:37;;;;;;;0.40;0.40;;;6.60;71.90;;;;;;4995097;28;20034;-76
2021/04/15 01:06:05;;;;;;;0.68;0.40;;;6.50;72.10;;;;;;4994517;28;20046;-76
2021/04/15 01:08:31;;;;;;;0.50;0.50;;;6.50;72.40;;;;;;4992579;28;20030;-76
2021/04/15 01:11:14;;;;;;;1.13;0.50;;;6.50;72.40;;;;;;4994814;28;20125;-77
2021/04/15 01:14:11;;;;;;;0.57;0.43;;;6.60;72.70;;;;;;4994364;28;20068;-77
2021/04/15 01:16:41;;;;;;;0.60;0.52;;;6.50;72.90;;;;;;4994376;28;20023;-76
2021/04/15 01:19:59;;;;;;;1.95;0.45;;;6.50;73.00;;;;;;4993981;28;20077;-78
2021/04/15 01:23:03;;;;;;;0.40;0.40;;;6.50;73.30;;;;;;4993019;28;20034;-76
2021/04/15 01:25:54;;;;;;;0.40;0.40;;;6.40;73.50;;;;;;4982719;28;20042;-77
2021/04/15 01:29:03;;;;;;;0.65;0.47;;;6.40;73.70;;;;;;4992406;28;20116;-76
2021/04/15 01:31:35;;;;;;;0.85;0.45;;;6.30;73.70;;;;;;4993218;28;20371;-77
2021/04/15 01:34:23;;;;;;;0.75;0.55;;;6.30;74.00;;;;;;4993920;28;20022;-77
2021/04/15 01:37:03;;;;;;;0.40;0.40;;;6.30;74.40;;;;;;4993978;28;20026;-77
2021/04/15 01:39:38;;;;;;;0.60;0.60;;;6.20;74.50;;;;;;4993471;28;20029;-76
2021/04/15 01:42:11;;;;;;;0.50;0.50;;;6.20;74.60;;;;;;4993920;28;20030;-76
2021/04/15 01:44:39;;;;;;;0.40;0.40;;;6.20;74.80;;;;;;4993515;28;20054;-76
2021/04/15 01:47:09;;;;;;;0.60;0.60;;;6.10;74.90;;;;;;4994058;28;20471;-76
2021/04/15 01:49:43;;;;;;;0.40;0.40;;;6.20;75.10;;;;;;4993457;28;20046;-76
2021/04/15 01:52:12;;;;;;;0.70;0.60;;;6.10;75.20;;;;;;4993764;28;20109;-77
2021/04/15 01:54:44;;;;;;;0.40;0.40;;;6.10;75.30;;;;;;4993575;28;20026;-77
2021/04/15 01:57:22;;;;;;;0.43;0.43;;;6.10;75.50;;;;;;4992365;28;20050;-77
2021/04/15 02:00:00;;;;;;;0.35;0.35;;;6.10;75.50;;;;;;4993247;28;20390;-76
2021/04/15 02:02:39;;;;;;;0.50;0.50;;;6.10;75.50;;;;;;4992876;28;20037;-76
2021/04/15 02:05:12;;;;;;;0.47;0.40;;;6.10;75.60;;;;;;4993574;28;20497;-76
2021/04/15 02:07:43;;;;;;;0.40;0.40;;;6.10;75.60;;;;;;4993494;28;20033;-78
2021/04/15 02:10:13;;;;;;;0.77;0.50;;;6.10;75.90;;;;;;4993629;28;20068;-76
2021/04/15 02:12:42;;;;;;;0.65;0.50;;;6.00;76.10;;;;;;4993378;28;20057;-77
2021/04/15 02:15:26;;;;;;;0.63;0.55;;;6.00;76.30;;;;;;4992948;28;20025;-76
2021/04/15 02:17:59;;;;;;;0.65;0.65;;;6.00;76.30;;;;;;4991999;28;20444;-76
2021/04/15 02:20:27;;;;;;;0.40;0.40;;;6.00;76.20;;;;;;4993018;28;20048;-75
2021/04/15 02:23:11;;;;;;;0.60;0.60;;;6.00;76.10;;;;;;4993052;28;20100;-77
2021/04/15 02:25:46;;;;;;;0.63;0.60;;;6.10;76.20;;;;;;4991252;28;20054;-76
2021/04/15 02:28:16;;;;;;;1.45;0.70;;;6.10;76.20;;;;;;4993150;28;20097;-77
2021/04/15 02:31:13;;;;;;;0.40;0.40;;;6.20;76.20;;;;;;4992845;28;20483;-77
2021/04/15 02:33:45;;;;;;;0.80;0.50;;;6.20;76.20;;;;;;5007080;28;20030;-76
2021/04/15 02:36:12;;;;;;;0.90;0.55;;;6.20;76.10;;;;;;4992620;28;20097;-77
2021/04/15 02:38:51;;;;;;;0.68;0.55;;;6.20;76.10;;;;;;4991967;28;20026;-76
2021/04/15 02:41:32;;;;;;;0.43;0.43;;;6.20;76.20;;;;;;4991966;28;20410;-76
2021/04/15 02:44:24;;;;;;;1.63;0.68;;;6.30;76.30;;;;;;4991507;28;20049;-76
2021/04/15 02:47:08;;;;;;;0.47;0.47;;;6.30;76.30;;;;;;4990966;28;20039;-77
2021/04/15 02:49:35;;;;;;;0.50;0.40;;;6.30;76.30;;;;;;4992083;28;20078;-76
2021/04/15 02:52:08;;;;;;;0.88;0.60;;;6.30;76.30;;;;;;4992822;28;20084;-76
2021/04/15 02:54:38;;;;;;;0.50;0.50;;;6.30;76.30;;;;;;4992002;28;20029;-76
2021/04/15 02:57:21;;;;;;;0.73;0.50;;;6.30;76.40;;;;;;4993098;28;20018;-76
2021/04/15 02:59:50;;;;;;;0.57;0.57;;;6.30;76.60;;;;;;4992518;28;20125;-76
2021/04/15 03:02:21;;;;;;;0.63;0.60;;;6.30;76.60;;;;;;4992315;28;20030;-77
2021/04/15 03:04:52;;;;;;;0.50;0.50;;;6.30;76.80;;;;;;4992311;28;20030;-76
2021/04/15 03:07:21;;;;;;;0.77;0.60;;;6.30;76.80;;;;;;4992109;28;20026;-76
2021/04/15 03:09:47;;;;;;;0.60;0.60;;;6.30;76.80;;;;;;4991180;28;20089;-77
2021/04/15 03:12:18;;;;;;;0.55;0.55;;;6.30;76.80;;;;;;4992726;28;20026;-77
2021/04/15 03:14:53;;;;;;;0.52;0.50;;;6.40;76.90;;;;;;4992780;28;20098;-77
2021/04/15 03:17:24;;;;;;;0.63;0.50;;;6.30;76.80;;;;;;4992065;28;20136;-76
2021/04/15 03:19:58;;;;;;;3.00;0.70;;;6.30;76.90;;;;;;4992651;28;20022;-77
2021/04/15 03:22:33;;;;;;;1.35;0.60;;;6.30;77.60;;;;;;5010449;28;20038;-76
2021/04/15 03:25:00;;;;;;;0.85;0.50;;;6.10;78.00;;;;;;5011484;28;20025;-76
2021/04/15 03:27:49;;;;;;;0.77;0.65;;;5.90;78.20;;;;;;5011004;28;20029;-76
2021/04/15 03:30:32;;;;;;;0.93;0.80;;;5.90;78.50;;;;;;5009516;28;20465;-77
2021/04/15 03:33:09;;;;;;;0.70;0.70;;;5.90;78.50;;;;;;5008513;28;20022;-77
2021/04/15 03:35:49;;;;;;;0.57;0.57;;;5.90;78.60;;;;;;5007870;28;20025;-77
2021/04/15 03:38:26;;;;;;;2.37;0.70;;;5.80;78.60;;;;;;5012130;28;20030;-73
2021/04/15 03:40:59;;;;;;;0.85;0.50;;;5.70;78.70;;;;;;5012266;28;20026;-74
2021/04/15 03:43:31;;;;;;;0.65;0.65;;;5.70;79.00;;;;;;5011798;28;20419;-70
2021/04/15 03:46:05;;;;;;;0.63;0.63;;;5.70;79.10;;;;;;5016569;28;20033;-75
2021/04/15 03:48:45;;;;;;;3.22;0.85;;;5.60;79.10;;;;;;5014413;28;20081;-74
2021/04/15 03:51:20;;;;;;;3.38;1.10;;;5.60;79.20;;;;;;5016492;28;20061;-76
2021/04/15 03:54:03;;;;;;;0.63;0.52;;;5.60;79.20;;;;;;5016039;28;20363;-77
2021/04/15 03:56:48;;;;;;;0.60;0.60;;;5.60;79.30;;;;;;5015235;28;20017;-76
2021/04/15 03:59:36;;;;;;;1.27;0.70;;;5.60;79.30;;;;;;5015939;28;20080;-76
2021/04/15 04:02:07;;;;;;;0.88;0.80;;;5.60;79.20;;;;;;5014430;28;20026;-76
2021/04/15 04:04:49;;;;;;;0.68;0.60;;;5.60;79.20;;;;;;5009863;28;20041;-76
2021/04/15 04:07:43;;;;;;;0.65;0.57;;;5.60;79.20;;;;;;5014208;28;20026;-76
2021/04/15 04:10:26;;;;;;;0.80;0.70;;;5.60;79.20;;;;;;5014835;28;20433;-76
2021/04/15 04:13:04;;;;;;;1.65;0.98;;;5.60;79.40;;;;;;5013347;28;20032;-75
2021/04/15 04:15:35;;;;;;;1.95;0.80;;;5.50;79.30;;;;;;5014216;28;20026;-76
2021/04/15 04:18:06;;;;;;;1.02;0.60;;;5.60;79.20;;;;;;5014920;28;20033;-76
2021/04/15 04:20:37;;;;;;;0.65;0.65;;;5.60;79.20;;;;;;5014700;28;20032;-77
2021/04/15 04:23:12;;;;;;;0.60;0.60;;;5.60;79.30;;;;;;5015293;28;20038;-75
2021/04/15 04:25:37;;;;;;;0.80;0.60;;;5.50;79.30;;;;;;5014784;28;20029;-76
2021/04/15 04:28:31;;;;;;;0.60;0.60;;;5.50;79.30;;;;;;5015156;28;20033;-77
2021/04/15 04:31:06;;;;;;;1.42;0.70;;;5.50;79.40;;;;;;5015169;28;20462;-76
2021/04/15 04:33:41;;;;;;;2.67;1.45;;;5.50;79.40;;;;;;5014175;28;20018;-76
2021/04/15 04:36:10;;;;;;;1.35;0.82;;;5.50;79.40;;;;;;5014981;28;20028;-75
2021/04/15 04:38:36;;;;;;;1.27;0.80;;;5.50;79.30;;;;;;5014829;28;20378;-80
2021/04/15 04:41:27;;;;;;;2.33;0.93;;;5.50;79.30;;;;;;5020953;28;20052;-81
2021/04/15 04:43:57;;;;;;;1.42;0.70;;;5.60;79.30;;;;;;5029951;28;20045;-81
2021/04/15 04:46:37;;;;;;;2.30;0.85;;;5.60;79.30;;;;;;5028654;28;20022;-81
2021/04/15 04:49:13;;;;;;;1.75;1.52;;;5.60;79.10;;;;;;5028204;28;20050;-80
2021/04/15 04:51:50;;;;;;;0.60;0.60;;;5.70;79.00;;;;;;5028850;28;20041;-80
2021/04/15 04:54:18;;;;;;;1.80;0.98;;;5.70;78.90;;;;;;5031161;28;20033;-81
2021/04/15 04:57:10;;;;;;;1.60;0.85;;;5.70;78.70;;;;;;5030204;28;20045;-82
2021/04/15 04:59:39;;;;;;;1.42;0.88;;;5.80;78.70;;;;;;5031882;28;20081;-80
2021/04/15 05:02:05;;;;;;;0.55;0.55;;;5.80;78.60;;;;;;5026226;28;20035;-82
2021/04/15 05:04:35;;;;;;;2.15;0.98;;;5.80;78.60;;;;;;5005111;28;20044;-83
2021/04/15 05:07:06;;;;;;;6.30;1.20;;;5.80;79.30;;;;;;5008763;28;20024;-83
2021/04/15 05:09:34;;;;;;;;;;;5.80;78.80;;;;;;5012102;28;20030;-81
2021/04/15 05:12:06;;;;;;;1.20;0.90;;;5.70;78.70;;;;;;5011845;28;19949;-83
2021/04/15 05:14:32;;;;;;;1.10;1.00;;;5.80;78.80;;;;;;5001385;28;20019;-75
2021/04/15 05:17:12;;;;;;;1.77;1.13;;;5.80;78.80;;;;;;4994236;28;20027;-75
2021/04/15 05:19:39;;;;;;;2.90;1.17;;;5.80;78.90;;;;;;4993844;28;20150;-75
2021/04/15 05:22:07;;;;;;;1.23;0.90;;;5.80;79.30;;;;;;4994169;28;20054;-75
2021/04/15 05:24:42;;;;;;;2.67;1.10;;;5.90;78.70;;;;;;4993776;28;20112;-75
2021/04/15 05:27:08;;;;;;;1.35;0.80;;;5.90;78.80;;;;;;4993187;28;20022;-74
2021/04/15 05:29:39;;;;;;;3.25;1.33;;;5.90;78.70;;;;;;4994330;28;20023;-76
2021/04/15 05:32:06;;;;;;;1.73;1.17;;;6.00;78.80;;;;;;4993814;28;20129;-76
2021/04/15 05:34:33;;;;;;;2.58;1.00;;;6.00;78.70;;;;;;4992069;28;20058;-76
2021/04/15 05:37:03;;;;;;;1.95;1.00;;;6.00;78.70;;;;;;4993825;28;20383;-76
2021/04/15 05:39:32;;;;;;;3.45;1.40;;;6.10;78.80;;;;;;4993784;28;20474;-77
2021/04/15 05:42:20;;;;;;;1.98;1.35;;;6.00;78.70;;;;;;4994205;28;20034;-76
2021/04/15 05:44:57;;;;;;;1.42;1.13;;;6.10;78.90;;;;;;5008360;28;20172;-75
2021/04/15 05:47:23;;;;;;;3.38;1.40;;;6.10;79.00;;;;;;4993802;28;20030;-76
2021/04/15 05:49:52;;;;;;;2.20;1.25;;;6.00;78.90;;;;;;4992619;28;20054;-75
2021/04/15 05:52:35;;;;;;;2.97;1.30;;;6.10;79.10;;;;;;4993579;28;20479;-76
2021/04/15 05:55:18;;;;;;;2.83;1.30;;;6.10;79.10;;;;;;4994142;28;20023;-76
2021/04/15 05:57:48;;;;;;;2.92;1.83;;;6.20;79.10;;;;;;4993223;28;20033;-75
2021/04/15 06:00:17;;;;;;;2.92;1.40;;;6.20;79.00;;;;;;4992739;28;20030;-76
2021/04/15 06:03:00;;;;;;;5.05;1.80;;;6.20;79.00;;;;;;4992807;28;20029;-76
2021/04/15 06:05:51;;;;;;;2.03;1.45;;;6.20;79.10;;;;;;4993779;28;20463;-76
2021/04/15 06:08:18;;;;;;;2.83;1.75;;;6.20;79.10;;;;;;4992092;28;20026;-75
2021/04/15 06:10:44;;;;;;;3.13;1.48;;;6.20;79.20;;;;;;4992729;28;20049;-75
2021/04/15 06:13:34;;;;;;;2.28;1.45;;;6.20;79.20;;;;;;4993311;28;20025;-76
2021/04/15 06:16:03;;;;;;;3.00;1.50;;;6.20;79.30;;;;;;4993617;28;20129;-75
2021/04/15 06:18:42;;;;;;;2.25;1.30;;;6.20;79.30;;;;;;4993179;28;20026;-75
2021/04/15 06:21:21;;;;;;;2.33;1.10;;;6.30;79.30;;;;;;4993260;28;20025;-76
2021/04/15 06:24:02;;;;;;;2.78;1.65;;;6.40;79.30;;;;;;4992597;28;20026;-75
2021/04/15 06:26:39;;;;;;;2.72;1.13;;;6.50;79.20;;;;;;4993168;28;20033;-76
2021/04/15 06:29:09;;;;;;;4.40;1.40;;;6.50;78.90;;;;;;4991756;28;20445;-77
2021/04/15 06:31:42;;;;;;;2.65;1.40;;;6.60;78.80;;;;;;4991254;28;20081;-75
2021/04/15 06:34:09;;;;;;;1.75;1.10;;;6.60;78.80;;;;;;4993279;28;20027;-75
2021/04/15 06:36:46;;;;;;;2.80;1.35;;;6.70;78.80;;;;;;4992256;28;20022;-75
2021/04/15 06:39:20;;;;;;;5.93;1.63;;;6.70;78.80;;;;;;4993093;28;20463;-76
2021/04/15 06:42:00;;;;;;;1.73;1.20;;;6.70;79.00;;;;;;4992090;28;20062;-75
2021/04/15 06:44:37;;;;;;;1.65;1.00;;;6.70;79.10;;;;;;4992668;28;20463;-76
2021/04/15 06:47:28;;;;;;;1.35;0.98;;;6.70;79.40;;;;;;4991250;28;20050;-74
2021/04/15 06:50:16;;;;;;;2.65;1.77;;;6.60;79.50;;;;;;4990496;28;20085;-76
2021/04/15 06:52:45;;;;;;;1.92;1.10;;;6.60;79.40;;;;;;4991252;28;20359;-76
2021/04/15 06:55:29;;;;;;;2.70;1.52;;;6.70;79.40;;;;;;4990877;28;20023;-77
2021/04/15 06:58:08;;;;;;;3.55;1.30;;;6.80;79.30;;;;;;4990878;28;20026;-77
2021/04/15 07:01:16;;;;;;;2.65;1.38;;;6.70;79.20;;;;;;4992714;28;20033;-74
2021/04/15 07:04:03;;;;;;;2.15;1.13;;;6.70;79.40;;;;;;4982538;28;20038;-76
2021/04/15 07:06:42;;;;;;;3.58;1.15;;;6.70;79.40;;;;;;4992680;28;20022;-76
2021/04/15 07:09:46;;;;;;;2.67;1.17;;;6.70;79.40;;;;;;4993065;28;20034;-76
2021/04/15 07:12:45;;;;;;;3.03;1.10;;;6.70;79.50;;;;;;4992413;28;20033;-76
2021/04/15 07:15:36;;;;;;;3.55;1.38;;;6.80;79.50;;;;;;4992400;28;20076;-77
2021/04/15 07:18:23;;;;;;;2.63;1.23;;;6.80;79.50;;;;;;4992191;28;20030;-76
2021/04/15 07:21:06;;;;;;;2.67;0.93;;;6.80;79.40;;;;;;4992845;28;20391;-76
2021/04/15 07:24:05;;;;;;;1.75;0.90;;;6.80;79.50;;;;;;4996567;28;20123;-77
2021/04/15 07:27:23;;;;;;;1.60;0.88;;;6.80;79.60;;;;;;4996107;28;20493;-77
2021/04/15 07:30:10;;;;;;;1.65;1.05;;;6.80;79.60;;;;;;4995585;28;20029;-75
2021/04/15 07:32:45;;;;;;;3.70;0.95;;;6.90;79.60;;;;;;4995169;28;20370;-75
2021/04/15 07:35:38;;;;;;;1.65;0.90;;;6.90;79.40;;;;;;4995959;28;20049;-74
2021/04/15 07:38:25;;;;;;;3.50;1.10;;;7.00;79.40;;;;;;4994461;28;20121;-76
2021/04/15 07:41:18;;;;;;;3.28;1.13;;;7.00;79.20;;;;;;4994637;28;20517;-75
2021/04/15 07:44:05;;;;;;;2.05;1.00;;;7.10;79.10;;;;;;4995005;28;20371;-77
2021/04/15 07:46:45;;;;;;;2.13;0.77;;;7.10;79.00;;;;;;4995695;28;20019;-74
2021/04/15 07:49:29;;;;;;;2.40;1.30;;;7.20;79.00;;;;;;4993995;28;20113;-75
2021/04/15 07:52:06;;;;;;;2.38;0.98;;;7.20;79.00;;;;;;4994199;28;20077;-74
2021/04/15 07:55:00;;;;;;;1.95;1.20;;;7.30;79.00;;;;;;4996401;28;20061;-82
2021/04/15 07:57:58;;;;;;;2.50;0.80;;;7.30;78.90;;;;;;4995785;28;20463;-75
2021/04/15 08:00:26;;;;;;;2.08;0.90;;;7.40;78.80;;;;;;4993278;28;20045;-74
2021/04/15 08:03:29;;;;;;;3.45;1.35;;;7.40;78.60;;;;;;4993525;28;20117;-76
2021/04/15 08:06:19;;;;;;;1.55;0.80;;;7.60;78.50;;;;;;4994590;28;20023;-75
2021/04/15 08:09:03;;;;;;;2.10;0.70;;;7.60;78.20;;;;;;4994490;28;20101;-74
2021/04/15 08:11:44;;;;;;;2.15;0.98;;;7.80;77.90;;;;;;4994268;28;20390;-75
2021/04/15 08:14:10;;;;;;;2.15;1.20;;;7.80;77.80;;;;;;4994343;28;20022;-74
2021/04/15 08:17:00;;;;;;;1.38;0.90;;;7.80;77.90;;;;;;4995657;28;20037;-75
2021/04/15 08:20:06;;;;;;;0.90;0.75;;;7.80;77.90;;;;;;4995946;28;20018;-75
2021/04/15 08:22:58;;;;;;;2.65;0.88;;;7.90;77.90;;;;;;4985411;28;20038;-73
2021/04/15 08:25:44;;;;;;;2.35;0.80;;;7.90;77.90;;;;;;4995061;28;20085;-74
2021/04/15 08:28:54;;;;;;;1.30;0.88;;;8.00;77.80;;;;;;4995180;28;20176;-74
2021/04/15 08:31:50;;;;;;;1.75;0.88;;;8.10;77.50;;;;;;4967047;28;20038;-74
2021/04/15 08:34:49;;;;;;;1.00;0.82;;;8.10;77.40;;;;;;4994943;28;20018;-75
2021/04/15 08:37:27;;;;;;;1.92;0.77;;;8.20;77.40;;;;;;4994773;28;20061;-73
2021/04/15 08:40:10;;;;;;;1.50;1.35;;;8.20;77.40;;;;;;4993999;28;20121;-74
2021/04/15 08:42:44;;;;;;;1.15;0.82;;;8.10;77.30;;;;;;4994346;28;20035;-74
2021/04/15 08:45:21;;;;;;;0.63;0.63;;;8.20;77.20;;;;;;4992992;28;20022;-74
2021/04/15 08:48:11;;;;;;;1.83;0.90;;;8.20;77.20;;;;;;4993980;28;20025;-74
2021/04/15 08:50:49;;;;;;;1.40;0.90;;;8.30;77.10;;;;;;4994233;28;20051;-74
2021/04/15 08:53:44;;;;;;;0.52;0.52;;;8.30;77.00;;;;;;4994625;28;20049;-74
2021/04/15 08:56:26;;;;;;;1.17;0.90;;;8.40;76.70;;;;;;4995127;28;20026;-74
2021/04/15 08:59:10;;;;;;;1.40;0.73;;;8.50;76.50;;;;;;4993956;28;20058;-75
2021/04/15 09:02:04;;;;;;;2.08;0.82;;;8.50;76.40;;;;;;4992789;28;20030;-74
2021/04/15 09:04:46;;;;;;;1.75;0.70;;;8.60;77.00;;;;;;4994775;28;20081;-75
2021/04/15 09:07:22;;;;;;;1.15;1.00;;;8.70;76.20;;;;;;4993275;28;20041;-75
2021/04/15 09:09:48;;;;;;;2.17;0.98;;;8.80;76.00;;;;;;4993546;28;20014;-75
2021/04/15 09:13:01;;;;;;;1.50;0.90;;;8.90;75.70;;;;;;4993006;28;20037;-74
2021/04/15 09:15:31;;;;;;;1.00;0.70;;;9.00;75.10;;;;;;4948187;28;20034;-73
2021/04/15 09:18:16;;;;;;;1.02;0.70;;;9.10;75.10;;;;;;4993670;28;20085;-74
2021/04/15 09:21:07;;;;;;;0.60;0.60;;;9.10;75.10;;;;;;4994053;28;20030;-74
2021/04/15 09:23:35;;;;;;;3.78;0.90;;;9.00;75.10;;;;;;4993869;28;20034;-73
2021/04/15 09:26:45;;;;;;;1.67;0.80;;;9.10;75.10;;;;;;4991584;28;20466;-74
2021/04/15 09:29:48;;;;;;;2.15;0.85;;;9.10;74.90;;;;;;4964663;28;20541;-82
2021/04/15 09:32:28;;;;;;;1.13;0.80;;;9.30;74.70;;;;;;4969284;28;20035;-75
2021/04/15 09:35:13;;;;;;;2.20;0.90;;;9.40;74.10;;;;;;4993180;28;20030;-73
2021/04/15 09:38:03;;;;;;;1.10;0.70;;;9.50;73.80;;;;;;4992647;28;20034;-75
2021/04/15 09:40:56;;;;;;;1.08;0.90;;;9.50;73.90;;;;;;4993915;28;20430;-75
2021/04/15 09:43:40;;;;;;;0.90;0.57;;;9.60;73.90;;;;;;4992863;28;20034;-74
2021/04/15 09:46:12;;;;;;;1.35;0.82;;;9.70;73.50;;;;;;4991545;28;20027;-74
2021/04/15 09:49:10;;;;;;;0.63;0.50;;;9.70;73.50;;;;;;4992050;28;20109;-73
2021/04/15 09:51:59;;;;;;;1.38;0.75;;;9.70;73.40;;;;;;4969288;28;20046;-74
2021/04/15 09:54:49;;;;;;;0.90;0.52;;;9.60;73.60;;;;;;4992051;28;20018;-75
2021/04/15 09:57:49;;;;;;;1.40;0.85;;;9.60;73.70;;;;;;4993796;28;20026;-77
2021/04/15 10:00:41;;;;;;;0.85;0.60;;;9.60;73.70;;;;;;4993548;28;20094;-75
2021/04/15 10:03:33;;;;;;;0.82;0.75;;;9.60;73.70;;;;;;4991093;28;20533;-74
2021/04/15 10:06:16;;;;;;;6.15;1.15;;;9.60;73.00;;;;;;4991974;28;20086;-75
2021/04/15 10:08:54;;;;;;;0.80;0.80;;;9.60;73.00;;;;;;4992037;28;20140;-74
2021/04/15 10:11:26;;;;;;;1.38;0.80;;;9.80;72.70;;;;;;4991707;28;20039;-74
2021/04/15 10:14:09;;;;;;;1.70;0.88;;;9.90;72.40;;;;;;4992382;28;20034;-78
2021/04/15 10:17:12;;;;;;;1.65;0.90;;;10.00;72.20;;;;;;4992687;28;20053;-73
2021/04/15 10:20:02;;;;;;;0.63;0.63;;;10.10;71.60;;;;;;4992667;28;20065;-75
2021/04/15 10:23:01;;;;;;;1.50;0.70;;;10.10;71.50;;;;;;4992222;28;20105;-74
2021/04/15 10:25:40;;;;;;;0.98;0.80;;;10.20;71.40;;;;;;4991762;28;20022;-75
2021/04/15 10:28:11;;;;;;;1.58;0.80;;;10.20;71.30;;;;;;4992788;28;20023;-74
2021/04/15 10:30:52;;;;;;;;;;;10.10;71.30;;;;;;4993597;28;20030;-76
2021/04/15 10:33:36;;;;;;;2.38;0.90;;;10.00;71.50;;;;;;4991664;28;19906;-74
2021/04/15 10:36:38;;;;;;;0.95;0.73;;;10.00;71.40;;;;;;4992125;28;20101;-74
2021/04/15 10:39:55;;;;;;;2.70;0.85;;;10.00;71.10;;;;;;4992355;28;20030;-74
2021/04/15 10:42:49;;;;;;;1.20;0.90;;;10.10;71.00;;;;;;4932269;29;20043;-74
2021/04/15 10:45:46;;;;;;;1.25;1.00;;;10.20;71.00;;;;;;4932128;29;20035;-74
2021/04/15 10:48:32;;;;;;;0.98;0.63;;;10.20;70.70;;;;;;4932146;29;20099;-74
2021/04/15 10:51:06;;;;;;;1.42;0.88;;;10.20;70.80;;;;;;4905859;29;20126;-75
2021/04/15 10:53:53;;;;;;;4.57;1.00;;;10.40;70.50;;;;;;4932629;29;20389;-75
2021/04/15 10:56:25;;;;;;;1.02;0.75;;;10.60;70.00;;;;;;4916224;29;20035;-74
2021/04/15 10:59:06;;;;;;;2.92;1.20;;;10.70;69.50;;;;;;4916624;29;20028;-75
2021/04/15 11:01:40;;;;;;;4.28;1.45;;;10.60;69.40;;;;;;4932268;29;20032;-75
2021/04/15 11:04:08;;;;;;;1.40;0.77;;;10.50;69.40;;;;;;4931609;29;20574;-74
2021/04/15 11:06:54;;;;;;;0.63;0.60;;;10.50;69.70;;;;;;4932601;29;20036;-75
2021/04/15 11:09:28;;;;;;;2.65;0.82;;;10.60;69.40;;;;;;4932455;29;20388;-75
2021/04/15 11:12:15;;;;;;;1.13;0.90;;;10.70;68.60;;;;;;4916457;28;20036;-75
2021/04/15 11:14:47;;;;;;;2.05;0.90;;;10.80;67.40;;;;;;4992476;28;20383;-75
2021/04/15 11:17:23;;;;;;;1.95;1.25;;;11.00;67.40;;;;;;4990312;28;20038;-74
2021/04/15 11:20:05;;;;;;;1.25;0.75;;;11.20;66.70;;;;;;4991198;28;20030;-75
2021/04/15 11:22:33;;;;;;;1.15;0.90;;;11.40;66.30;;;;;;4992186;28;20051;-74
2021/04/15 11:25:26;;;;;;;1.85;0.80;;;11.60;65.80;;;;;;4991823;28;20022;-75
2021/04/15 11:27:53;;;;;;;1.05;0.70;;;11.80;65.70;;;;;;4992331;28;20029;-74
2021/04/15 11:30:52;;;;;;;2.83;0.90;;;11.90;65.10;;;;;;4991506;28;20037;-75
2021/04/15 11:33:41;;;;;;;0.73;0.68;;;12.10;64.40;;;;;;4975761;28;20100;-74
2021/04/15 11:36:14;;;;;;;2.80;0.90;;;12.10;64.50;;;;;;4991532;28;20019;-75
2021/04/15 11:38:43;;;;;;;0.95;0.57;;;12.20;63.90;;;;;;4991005;28;20018;-75
2021/04/15 11:41:24;;;;;;;2.20;0.75;;;12.30;63.60;;;;;;4991676;28;20026;-75
2021/04/15 11:44:02;;;;;;;1.00;0.60;;;12.50;62.90;;;;;;4992240;28;20057;-75
2021/04/15 11:46:48;;;;;;;1.55;0.63;;;12.70;62.00;;;;;;4992461;28;20164;-75
2021/04/15 11:49:37;;;;;;;1.52;0.70;;;12.90;61.60;;;;;;4989851;28;20019;-74
2021/04/15 11:52:12;;;;;;;0.98;0.75;;;13.30;61.30;;;;;;4991585;28;20121;-74
2021/04/15 11:54:42;;;;;;;1.27;0.70;;;13.70;60.60;;;;;;4992300;28;20026;-75
2021/04/15 11:57:20;;;;;;;1.30;0.70;;;14.10;60.00;;;;;;4991018;28;20034;-74
2021/04/15 12:00:15;;;;;;;1.27;0.90;;;14.40;59.40;;;;;;4990949;28;20029;-75
2021/04/15 12:02:55;;;;;;;2.28;1.10;;;14.60;58.70;;;;;;4962915;28;20042;-74
2021/04/15 12:05:29;;;;;;;1.08;0.95;;;14.60;57.10;;;;;;4991387;28;20026;-75
2021/04/15 12:07:58;;;;;;;1.05;0.60;;;14.40;56.60;;;;;;4994675;28;20352;-75
2021/04/15 12:10:27;;;;;;;0.85;0.68;;;14.20;57.60;;;;;;4993862;28;20053;-75
2021/04/15 12:13:07;;;;;;;1.45;0.75;;;14.10;57.50;;;;;;4995719;28;20029;-74
2021/04/15 12:15:40;;;;;;;1.38;1.13;;;14.00;57.50;;;;;;4994330;28;20029;-74
2021/04/15 12:18:20;;;;;;;0.50;0.50;;;14.00;57.10;;;;;;4993542;28;20113;-74
2021/04/15 12:21:20;;;;;;;0.63;0.63;;;14.10;57.20;;;;;;4995526;28;20463;-74
2021/04/15 12:23:59;;;;;;;0.70;0.50;;;14.10;57.30;;;;;;4995457;28;20505;-74
2021/04/15 12:26:47;;;;;;;0.70;0.63;;;14.10;56.80;;;;;;4995250;28;20030;-74
2021/04/15 12:29:48;;;;;;;0.43;0.43;;;14.10;57.20;;;;;;4994912;28;20022;-74
2021/04/15 12:32:41;;;;;;;0.90;0.57;;;14.20;56.10;;;;;;4934258;29;20119;-75
2021/04/15 12:35:32;;;;;;;0.93;0.57;;;14.50;55.50;;;;;;4991680;28;20073;-75
2021/04/15 12:38:05;;;;;;;2.80;0.80;;;14.50;55.30;;;;;;4995201;28;20478;-75
2021/04/15 12:40:33;;;;;;;1.63;0.82;;;14.50;55.30;;;;;;4994805;28;20109;-75
2021/04/15 12:43:11;;;;;;;0.82;0.60;;;14.60;55.30;;;;;;4993724;28;20376;-75
2021/04/15 12:45:52;;;;;;;1.08;0.75;;;14.80;54.90;;;;;;4994717;28;20122;-74
2021/04/15 12:48:29;;;;;;;;;;;15.00;54.60;;;;;;4994619;28;20486;-74
2021/04/15 12:50:55;;;;;;;2.05;0.85;;;15.00;54.70;;;;;;4994494;28;19917;-75
2021/04/15 12:53:21;;;;;;;1.50;1.00;;;15.00;54.30;;;;;;4993952;28;20434;-75
2021/04/15 12:55:50;;;;;;;0.50;0.50;;;14.80;53.70;;;;;;4994858;28;20039;-74
2021/04/15 12:58:20;;;;;;;1.30;0.60;;;14.60;54.10;;;;;;4992661;28;20027;-74
2021/04/15 13:00:48;;;;;;;1.65;0.85;;;14.20;54.20;;;;;;4994582;28;20043;-74
2021/04/15 13:03:36;;;;;;;1.15;0.80;;;14.00;54.50;;;;;;4992978;28;20026;-74
2021/04/15 13:06:18;;;;;;;1.63;0.80;;;13.90;54.50;;;;;;4994040;28;20031;-73
2021/04/15 13:08:53;;;;;;;1.08;0.50;;;13.70;54.80;;;;;;4994489;28;20487;-74
2021/04/15 13:11:18;;;;;;;1.58;0.70;;;13.60;55.10;;;;;;5009136;28;20379;-74
2021/04/15 13:13:57;;;;;;;0.95;0.70;;;13.50;55.20;;;;;;4994499;28;20018;-74
2021/04/15 13:16:34;;;;;;;0.95;0.70;;;13.60;54.90;;;;;;4993891;28;20033;-75
2021/04/15 13:19:02;;;;;;;1.15;0.68;;;13.50;54.60;;;;;;4991844;28;20057;-75
2021/04/15 13:21:34;;;;;;;1.90;0.63;;;13.50;54.80;;;;;;5008500;28;20033;-75
2021/04/15 13:24:01;;;;;;;1.60;0.95;;;13.60;54.40;;;;;;4992975;28;20482;-75
2021/04/15 13:26:33;;;;;;;0.93;0.77;;;13.70;53.90;;;;;;4993589;28;20026;-74
2021/04/15 13:29:10;;;;;;;0.50;0.50;;;13.80;53.80;;;;;;4994351;28;20025;-74
2021/04/15 13:31:41;;;;;;;1.60;0.73;;;13.80;53.60;;;;;;4994404;28;20030;-74
2021/04/15 13:34:08;;;;;;;0.60;0.60;;;13.70;53.50;;;;;;4993584;28;20024;-75
2021/04/15 13:36:36;;;;;;;1.00;0.77;;;13.60;53.70;;;;;;4994141;28;20471;-75
2021/04/15 13:39:07;;;;;;;0.98;0.60;;;13.50;53.90;;;;;;4993804;28;20092;-75
2021/04/15 13:41:43;;;;;;;1.10;0.68;;;13.70;53.80;;;;;;4993921;28;20023;-75
2021/04/15 13:44:12;;;;;;;1.05;0.70;;;13.80;52.90;;;;;;4993594;28;20441;-73
2021/04/15 13:46:46;;;;;;;1.27;0.80;;;13.90;52.70;;;;;;4992531;28;20030;-74
2021/04/15 13:49:12;;;;;;;0.73;0.68;;;14.00;52.50;;;;;;4992998;28;20034;-74
2021/04/15 13:51:50;;;;;;;1.05;0.90;;;14.10;51.80;;;;;;4993877;28;20027;-73
2021/04/15 13:54:21;;;;;;;2.80;1.23;;;14.10;51.70;;;;;;4991937;28;20023;-75
2021/04/15 13:56:53;;;;;;;0.68;0.63;;;14.10;51.70;;;;;;4993873;28;20064;-73